Cap Theodora — SVAM5 — position and weather

sailwx.info

Track history (hours):
 
Tides and Currents Weather Stations Pressure Air Temp Water Temp Dewpoint Dewpoint Depression Visibility Wind Speed Wind Dir Waves Ship Positions

Cap Theodora

Last reported at 2017-May-15 08:29 UTC. Time now 2017-Jun-26 15:39 UTC.
Position N 29°60' W 090°26'.
Warning: this ship's position is 42 days out of date.

Length 274 m; draft 15.3 m.

Type: Ship. MMSI: 240840000.

Date/timePositionNaut miles runAvg speedWind from/ knotsBaromVisibWave heightAir tempDewpointWater temp
2017-May-15 08:29N 29°60' W 090°26'4 6.7
2017-May-15 07:52N 29°57' W 090°23'  
2017-May-10 03:16N 25°37' W 079°30'414.0
2017-May-10 03:00N 25°40' W 079°30'713.9
2017-May-10 02:30N 25°47' W 079°30'1313.6
2017-May-10 01:34N 25°60' W 079°30'113.6
2017-May-10 01:30N 26°01' W 079°30'714.4
2017-May-10 01:00N 26°06' W 079°24'815.1
2017-May-10 00:30N 26°10' W 079°17'  
Track history (hours):
 
Tides and Currents Weather Stations Pressure Air Temp Water Temp Dewpoint Dewpoint Depression Visibility Wind Speed Wind Dir Waves Ship Positions

Cap Theodora

Last reported at 2017-May-15 08:29 UTC. Time now 2017-Jun-26 15:39 UTC.
Position N 29°60' W 090°26'.
Warning: this ship's position is 42 days out of date.

Length 274 m; draft 15.3 m.

Type: Ship. MMSI: 240840000.

Date/timePositionNaut miles runAvg speedWind from/ knotsBaromVisibWave heightAir tempDewpointWater temp
2017-May-15 08:29N 29°60' W 090°26'4 6.7
2017-May-15 07:52N 29°57' W 090°23'  
2017-May-10 03:16N 25°37' W 079°30'414.0
2017-May-10 03:00N 25°40' W 079°30'713.9
2017-May-10 02:30N 25°47' W 079°30'1313.6
2017-May-10 01:34N 25°60' W 079°30'113.6
2017-May-10 01:30N 26°01' W 079°30'714.4
2017-May-10 01:00N 26°06' W 079°24'815.1
2017-May-10 00:30N 26°10' W 079°17'  

Dump ship's entire track history